Time;durP1;ratioP1;P1;durP2;ratioP2;P2;SDS_P1;SDS_P2;PMS_P1;PMS_P2;Temp;Humidity;BMP_temperature;BMP_pressure;BME280_temperature;BME280_humidity;BME280_pressure;Samples;Min_cycle;Max_cycle;Signal;HPM_P1;HPM_P2
2024/01/13 00:01:30;;;;;;;;;45.75;39.25;;;;;11.47;42.67;102578.72;5037062;28;45449;-83
2024/01/13 00:03:55;;;;;;;;;57.75;43.75;;;;;11.65;41.87;102599.84;5037612;28;45347;-83
2024/01/13 00:06:21;;;;;;;;;55.00;42.00;;;;;11.86;42.42;102641.53;5037324;28;45407;-81
2024/01/13 00:08:46;;;;;;;;;51.00;41.75;;;;;11.43;41.96;102571.63;5037269;28;46486;-80
2024/01/13 00:11:12;;;;;;;;;40.00;34.50;;;;;11.79;41.75;102643.47;5032169;28;46028;-83
2024/01/13 00:13:37;;;;;;;;;48.75;41.75;;;;;11.41;41.94;102586.88;5037383;28;45484;-82
2024/01/13 00:16:02;;;;;;;;;48.50;42.25;;;;;11.59;42.04;102614.28;5018729;28;46439;-80
2024/01/13 00:18:28;;;;;;;;;59.00;42.75;;;;;11.66;42.08;102632.03;5039686;28;45465;-80
2024/01/13 00:20:53;;;;;;;;;58.00;43.00;;;;;11.62;42.55;102624.97;5044417;28;45265;-79
2024/01/13 00:23:19;;;;;;;;;53.00;43.67;;;;;11.67;42.74;102625.75;5037949;28;45339;-82
2024/01/13 00:25:45;;;;;;;;;55.00;42.67;;;;;11.72;42.55;102623.88;5036781;28;45541;-82
2024/01/13 00:28:10;;;;;;;;;64.00;45.33;;;;;11.62;42.34;102592.72;5038226;28;46444;-81
2024/01/13 05:32:12;;;;;;;;;29.00;27.50;;;;;11.11;41.94;102370.97;5042613;27;45481;-81
2024/01/13 05:34:39;;;;;;;;;33.00;31.00;;;;;11.20;41.95;102386.88;5021737;28;46001;-81
2024/01/13 05:37:05;;;;;;;;;39.25;36.00;;;;;10.81;42.18;102330.44;5004664;28;45222;-81
2024/01/13 05:39:30;;;;;;;;;45.50;32.75;;;;;11.07;42.35;102354.03;5011382;28;45428;-81
2024/01/13 05:41:56;;;;;;;;;38.50;32.50;;;;;11.24;42.58;102397.50;5017589;28;45325;-82
2024/01/13 05:44:21;;;;;;;;;40.50;28.50;;;;;11.31;42.11;102387.53;4997660;28;46013;-81
2024/01/13 05:46:47;;;;;;;;;37.25;31.25;;;;;11.34;42.33;102387.44;5014997;28;52502;-81
2024/01/13 05:49:12;;;;;;;;;43.75;33.25;;;;;11.29;42.19;102376.81;5015686;28;45196;-82
2024/01/13 05:51:37;;;;;;;;;52.25;37.00;;;;;11.14;42.80;102353.00;5015132;28;51872;-82
2024/01/13 05:54:03;;;;;;;;;35.25;32.25;;;;;11.14;42.62;102350.31;5013067;28;46499;-83
2024/01/13 05:56:30;;;;;;;;;37.25;31.00;;;;;11.43;42.67;102378.28;5014953;28;45386;-80
2024/01/13 05:58:55;;;;;;;;;27.25;26.50;;;;;11.42;42.23;102385.44;5016155;28;45295;-81
2024/01/13 06:01:21;;;;;;;;;42.00;29.50;;;;;11.42;42.10;102365.78;5012071;28;45495;-80
2024/01/13 06:03:46;;;;;;;;;27.75;23.75;;;;;11.36;42.44;102356.94;5015508;28;45317;-80
2024/01/13 06:06:11;;;;;;;;;32.25;29.75;;;;;11.46;42.03;102370.16;5015688;28;45459;-82
2024/01/13 06:08:37;;;;;;;;;30.50;26.00;;;;;11.36;42.31;102356.06;4997261;28;45331;-82
2024/01/13 06:11:03;;;;;;;;;39.50;30.25;;;;;11.32;42.60;102346.31;5010325;28;45383;-81
2024/01/13 06:13:28;;;;;;;;;37.25;31.50;;;;;11.26;42.41;102336.59;5014690;28;45400;-81
2024/01/13 06:15:54;;;;;;;;;33.00;25.25;;;;;11.31;42.67;102364.22;5015563;28;45464;-82
2024/01/13 06:18:19;;;;;;;;;35.75;30.50;;;;;11.10;42.81;102329.81;4997531;28;45345;-80
2024/01/13 06:20:46;;;;;;;;;35.75;32.00;;;;;10.94;42.84;102304.25;5015131;28;45333;-83
2024/01/13 06:23:11;;;;;;;;;34.75;27.25;;;;;11.27;42.92;102346.41;4996782;28;46114;-80
2024/01/13 06:25:36;;;;;;;;;35.50;30.50;;;;;11.25;42.71;102342.00;4997302;28;45467;-81
2024/01/13 06:28:02;;;;;;;;;34.25;27.00;;;;;11.15;42.86;102338.63;5015230;28;46109;-81
2024/01/13 06:30:27;;;;;;;;;37.25;31.75;;;;;10.97;42.24;102299.69;5016405;28;45868;-83
2024/01/13 06:32:53;;;;;;;;;25.25;23.75;;;;;11.16;42.59;102323.41;5030234;28;45398;-81
2024/01/13 06:35:18;;;;;;;;;26.25;23.75;;;;;11.21;42.96;102321.53;5035505;28;45384;-82
2024/01/13 06:37:43;;;;;;;;;33.75;30.00;;;;;11.07;42.46;102299.47;5035834;28;45442;-84
2024/01/13 06:40:10;;;;;;;;;39.00;28.00;;;;;11.28;42.26;102334.78;5011489;28;45677;-80
2024/01/13 06:42:35;;;;;;;;;36.00;27.50;;;;;11.14;42.54;102320.78;5027404;28;46181;-79
2024/01/13 06:45:00;;;;;;;;;36.25;27.50;;;;;11.20;42.43;102328.69;5016525;28;45532;-76
2024/01/13 06:47:26;;;;;;;;;36.25;29.00;;;;;11.30;42.50;102348.16;5034079;28;45451;-76
2024/01/13 06:49:51;;;;;;;;;34.50;27.75;;;;;11.24;42.59;102338.44;5034797;28;45397;-78
2024/01/13 06:52:16;;;;;;;;;34.75;22.25;;;;;11.30;42.91;102341.00;5034437;28;45506;-75
2024/01/13 06:54:42;;;;;;;;;35.25;27.00;;;;;11.28;42.95;102341.94;5034263;28;45397;-78
2024/01/13 06:57:07;;;;;;;;;35.75;30.25;;;;;11.31;42.12;102336.50;5034903;28;45252;-75
2024/01/13 06:59:33;;;;;;;;;30.75;25.75;;;;;11.27;42.50;102327.63;5036587;28;45812;-76
2024/01/13 07:01:58;;;;;;;;;35.00;31.00;;;;;11.36;42.35;102345.31;5034650;28;46202;-77
2024/01/13 07:04:24;;;;;;;;;50.00;30.00;;;;;11.40;42.64;102349.69;5036200;28;45299;-74
2024/01/13 07:06:49;;;;;;;;;43.00;27.50;;;;;11.30;42.56;102327.56;5038283;28;45505;-79
2024/01/13 07:09:17;;;;;;;;;26.50;19.75;;;;;11.50;41.93;102343.19;5037536;28;45410;-79
2024/01/13 07:11:42;;;;;;;;;30.75;25.50;;;;;11.39;42.27;102323.78;5031321;28;46126;-84
2024/01/13 07:14:07;;;;;;;;;37.75;29.50;;;;;11.54;41.69;102341.31;5034385;28;45220;-79
2024/01/13 07:16:33;;;;;;;;;32.75;29.25;;;;;11.51;42.21;102330.63;5033120;28;45878;-77
2024/01/13 07:18:58;;;;;;;;;34.25;27.00;;;;;11.51;42.12;102333.31;5032087;28;45618;-78
2024/01/13 07:21:24;;;;;;;;;38.00;30.00;;;;;11.53;41.97;102340.44;5032862;28;46456;-79
2024/01/13 07:23:49;;;;;;;;;30.75;27.00;;;;;11.52;42.35;102343.16;5032826;28;45346;-77
2024/01/13 07:26:14;;;;;;;;;32.25;27.75;;;;;11.55;41.77;102340.41;5034665;28;45547;-78
2024/01/13 07:28:40;;;;;;;;;37.00;29.75;;;;;11.39;42.25;102329.16;5036404;28;45466;-81
2024/01/13 07:31:06;;;;;;;;;30.75;26.75;;;;;11.36;42.09;102339.97;5036390;28;46516;-73
2024/01/13 07:33:31;;;;;;;;;26.25;21.75;;;;;11.23;42.25;102317.88;5037041;28;45338;-80
2024/01/13 07:35:57;;;;;;;;;38.25;23.75;;;;;11.29;42.34;102327.59;5019449;28;45517;-80
2024/01/13 07:38:22;;;;;;;;;35.00;33.00;;;;;11.21;42.40;102319.72;5037508;28;45473;-78
2024/01/13 07:40:48;;;;;;;;;31.00;26.00;;;;;11.24;42.64;102334.84;5032727;28;45797;-80
2024/01/13 07:43:13;;;;;;;;;41.25;35.75;;;;;11.07;42.91;102304.84;5036793;28;45367;-77
2024/01/13 07:45:38;;;;;;;;;38.50;34.00;;;;;11.04;42.75;102303.13;5036847;28;45332;-77
2024/01/13 07:48:04;;;;;;;;;40.25;30.75;;;;;11.19;42.82;102340.34;5036798;28;45336;-78
2024/01/13 07:50:29;;;;;;;;;28.00;23.25;;;;;11.19;43.08;102326.03;5036630;28;46219;-79
2024/01/13 07:52:54;;;;;;;;;33.00;25.50;;;;;11.12;43.19;102316.38;5036831;28;47905;-79
2024/01/13 07:55:20;;;;;;;;;40.75;30.50;;;;;11.02;43.07;102312.13;5018675;28;45345;-79
2024/01/13 07:57:45;;;;;;;;;37.50;27.00;;;;;11.08;43.32;102334.34;5037130;28;45208;-79
2024/01/13 08:00:12;;;;;;;;;36.25;30.25;;;;;11.02;43.48;102330.91;5037062;28;55641;-78
2024/01/13 08:02:38;;;;;;;;;41.00;31.00;;;;;11.03;43.37;102327.31;5036991;28;45404;-78
2024/01/13 08:05:04;;;;;;;;;26.75;24.50;;;;;10.97;43.31;102314.94;5037090;28;45342;-77
2024/01/13 08:07:29;;;;;;;;;36.00;27.75;;;;;11.05;42.92;102331.75;5036716;28;45486;-76
2024/01/13 08:09:54;;;;;;;;;26.75;25.25;;;;;10.97;43.09;102298.81;5036092;28;49607;-77
2024/01/13 08:12:20;;;;;;;;;39.50;32.50;;;;;11.06;42.95;102303.94;5013681;28;45484;-77
2024/01/13 08:14:45;;;;;;;;;39.75;30.75;;;;;10.98;43.02;102304.13;5036628;28;46311;-77
2024/01/13 08:17:10;;;;;;;;;37.75;27.25;;;;;11.08;42.87;102307.50;5018131;28;49597;-77
2024/01/13 08:19:37;;;;;;;;;33.00;26.75;;;;;11.04;42.70;102302.25;5036409;28;45872;-77
2024/01/13 08:22:03;;;;;;;;;37.00;30.50;;;;;11.05;42.47;102312.94;5037029;28;45750;-77
2024/01/13 08:24:30;;;;;;;;;40.50;30.50;;;;;10.92;42.81;102304.28;5036878;28;45305;-76
2024/01/13 08:26:56;;;;;;;;;31.75;29.00;;;;;10.91;42.92;102304.31;5019605;28;46191;-77
2024/01/13 08:29:21;;;;;;;;;32.50;30.50;;;;;10.77;42.80;102298.38;5037083;28;46976;-77
2024/01/13 08:31:49;;;;;;;;;35.75;28.25;;;;;10.46;43.07;102257.94;5037211;28;45177;-79
2024/01/13 08:34:14;;;;;;;;;31.75;27.25;;;;;10.69;42.83;102301.22;5022877;28;45435;-77
2024/01/13 08:36:41;;;;;;;;;26.75;26.25;;;;;10.61;43.00;102308.56;5036969;28;45577;-76
2024/01/13 08:39:06;;;;;;;;;33.00;28.00;;;;;10.66;42.97;102308.44;5018090;28;47287;-78
2024/01/13 08:41:32;;;;;;;;;30.00;26.50;;;;;10.45;43.19;102299.06;5031646;28;45932;-76
2024/01/13 08:43:57;;;;;;;;;21.75;19.50;;;;;10.35;43.49;102305.53;5036435;28;45473;-77
2024/01/13 08:46:23;;;;;;;;;41.25;26.25;;;;;10.16;43.79;102300.50;5036285;28;45420;-77
2024/01/13 08:48:49;;;;;;;;;33.00;28.50;;;;;10.02;43.72;102290.97;5035750;28;45925;-80
2024/01/13 08:51:14;;;;;;;;;28.00;24.25;;;;;10.10;43.50;102303.28;5036000;28;45371;-78
2024/01/13 08:53:40;;;;;;;;;30.25;27.25;;;;;10.16;43.91;102316.56;5035731;28;45397;-78
2024/01/13 08:56:06;;;;;;;;;39.00;27.50;;;;;10.22;43.70;102323.63;5035889;28;45358;-77
2024/01/13 08:58:31;;;;;;;;;33.50;29.25;;;;;10.31;43.56;102326.13;5037674;28;46118;-78
2024/01/13 09:00:56;;;;;;;;;32.50;28.00;;;;;9.92;43.52;102294.72;5036492;28;45413;-79
2024/01/13 09:03:22;;;;;;;;;32.50;29.00;;;;;9.99;43.42;102313.31;5036795;28;45363;-75
2024/01/13 09:05:48;;;;;;;;;34.50;25.75;;;;;9.89;43.25;102325.09;5018282;28;46078;-77
2024/01/13 09:08:13;;;;;;;;;32.00;30.50;;;;;9.85;44.03;102310.91;5019813;28;47272;-78
2024/01/13 09:10:39;;;;;;;;;27.50;22.50;;;;;9.75;44.06;102300.38;5040971;28;45541;-76
2024/01/13 09:13:04;;;;;;;;;31.00;28.00;;;;;10.00;43.94;102339.22;5031875;28;45389;-77
2024/01/13 09:15:30;;;;;;;;;29.25;24.50;;;;;9.79;44.23;102334.22;5036180;28;45380;-76
2024/01/13 09:17:56;;;;;;;;;33.25;27.00;;;;;9.68;44.29;102328.19;5036202;28;45314;-79
2024/01/13 09:20:21;;;;;;;;;34.00;26.50;;;;;9.85;44.46;102343.06;5035779;28;45268;-76
2024/01/13 09:22:47;;;;;;;;;33.25;28.00;;;;;9.94;44.07;102336.66;5036187;28;49545;-76
2024/01/13 09:25:12;;;;;;;;;32.25;26.00;;;;;10.09;43.99;102347.06;5036621;28;45694;-78
2024/01/13 09:27:38;;;;;;;;;35.75;32.75;;;;;10.19;43.85;102345.16;5035061;28;46101;-76
2024/01/13 09:30:05;;;;;;;;;36.00;27.25;;;;;10.11;44.28;102339.91;5035298;28;45411;-76
2024/01/13 09:32:30;;;;;;;;;38.00;34.00;;;;;10.04;44.44;102340.91;5012868;28;45563;-76
2024/01/13 09:34:56;;;;;;;;;35.00;24.33;;;;;10.15;44.40;102335.34;5027479;28;57193;-77
2024/01/13 09:37:22;;;;;;;;;45.67;37.33;;;;;10.19;44.12;102316.56;5033924;28;46345;-76
2024/01/13 09:39:48;;;;;;;;;32.00;19.33;;;;;10.28;44.09;102322.66;5015473;28;45254;-78
2024/01/13 09:42:26;;;;;;;;;43.25;33.00;;;;;10.26;43.97;102336.06;5031071;28;45601;-77
2024/01/13 09:44:51;;;;;;;;;55.00;33.67;;;;;10.18;43.92;102324.63;5035421;28;45310;-77
2024/01/13 09:47:17;;;;;;;;;38.33;29.00;;;;;10.13;43.89;102339.84;5035683;28;45470;-77
2024/01/13 09:49:43;;;;;;;;;43.33;38.00;;;;;10.03;43.98;102339.16;5035075;28;45347;-76
2024/01/13 09:52:09;;;;;;;;;40.75;33.75;;;;;10.18;43.93;102354.09;5036137;28;45507;-76
2024/01/13 09:54:35;;;;;;;;;40.33;32.67;;;;;10.12;43.92;102330.91;5018027;28;45476;-77
2024/01/13 09:57:00;;;;;;;;;51.00;35.50;;;;;10.37;43.56;102351.97;5036065;28;45511;-77
2024/01/13 09:59:28;;;;;;;;;38.75;35.25;;;;;10.41;43.46;102356.34;5038512;28;45269;-77
2024/01/13 10:01:53;;;;;;;;;39.25;32.75;;;;;10.44;43.49;102367.91;5038699;28;45268;-77
2024/01/13 10:04:19;;;;;;;;;39.50;34.50;;;;;10.54;43.01;102361.44;5034583;28;46534;-76
2024/01/13 10:06:47;;;;;;;;;32.00;30.25;;;;;10.61;42.87;102357.72;5035085;28;45978;-76
2024/01/13 10:09:12;;;;;;;;;44.75;34.25;;;;;10.73;42.93;102348.50;5034570;28;45394;-75
2024/01/13 10:11:38;;;;;;;;;38.00;33.00;;;;;10.83;42.40;102362.63;5029899;28;45336;-78
2024/01/13 10:14:05;;;;;;;;;43.50;35.25;;;;;10.88;42.81;102369.69;5031282;28;45424;-75
2024/01/13 10:16:33;;;;;;;;;35.00;29.75;;;;;10.83;42.19;102351.88;5033350;28;45431;-74
2024/01/13 10:19:04;;;;;;;;;32.25;30.75;;;;;10.83;42.40;102358.13;5034499;28;45344;-74
2024/01/13 10:21:29;;;;;;;;;31.25;31.25;;;;;10.79;42.33;102345.72;5039694;28;45415;-75
2024/01/13 10:23:57;;;;;;;;;31.50;28.00;;;;;10.92;42.43;102349.91;5035371;28;45395;-78
2024/01/13 10:26:26;;;;;;;;;42.00;36.00;;;;;11.00;42.01;102344.34;5034536;28;46158;-75
2024/01/13 10:28:52;;;;;;;;;38.00;28.75;;;;;10.93;42.36;102348.97;5033604;28;45404;-72
2024/01/13 10:31:18;;;;;;;;;41.75;30.25;;;;;10.71;42.28;102310.13;5033975;28;45367;-79
2024/01/13 10:33:48;;;;;;;;;42.00;32.00;;;;;10.77;42.25;102334.13;5035105;28;45240;-77
2024/01/13 10:36:20;;;;;;;;;31.75;31.75;;;;;10.60;42.34;102310.34;5033942;28;45466;-73
2024/01/13 10:38:45;;;;;;;;;41.75;32.00;;;;;10.76;42.20;102323.44;5029367;28;45531;-73
2024/01/13 10:41:12;;;;;;;;;38.25;36.25;;;;;10.66;41.93;102314.69;5029230;28;45807;-75
2024/01/13 10:43:40;;;;;;;;;36.50;28.25;;;;;10.51;42.67;102323.06;5034589;28;45636;-72
2024/01/13 10:46:17;;;;;;;;;33.75;26.00;;;;;10.42;42.23;102323.25;5033783;28;46541;-75
2024/01/13 10:48:45;;;;;;;;;37.25;32.50;;;;;10.32;42.79;102317.19;5033291;28;45352;-74
2024/01/13 10:51:33;;;;;;;;;33.00;27.00;;;;;10.31;42.80;102306.47;5033771;28;45232;-74
2024/01/13 10:54:00;;;;;;;;;27.75;25.25;;;;;10.14;43.00;102304.09;5039333;28;45629;-70
2024/01/13 10:56:27;;;;;;;;;36.75;27.50;;;;;9.98;43.67;102297.25;5033550;28;46483;-78
2024/01/13 10:58:54;;;;;;;;;28.75;24.50;;;;;10.20;43.48;102296.00;5035877;28;45370;-75
2024/01/13 11:01:20;;;;;;;;;33.00;28.50;;;;;10.45;42.89;102280.31;5021234;28;45447;-76
2024/01/13 11:03:47;;;;;;;;;24.25;24.25;;;;;10.53;42.57;102268.50;5021662;28;45638;-73
2024/01/13 11:06:13;;;;;;;;;36.75;29.25;;;;;10.61;41.92;102265.66;5037949;28;45437;-75
2024/01/13 11:08:39;;;;;;;;;29.50;27.25;;;;;10.37;41.94;102252.78;5037594;28;45273;-77
2024/01/13 11:11:08;;;;;;;;;30.75;25.75;;;;;10.13;42.56;102254.09;5029890;28;46131;-77
2024/01/13 11:13:39;;;;;;;;;28.75;21.50;;;;;10.18;42.95;102260.28;5006523;28;45808;-75
2024/01/13 11:16:14;;;;;;;;;37.50;30.25;;;;;10.24;42.68;102252.13;5036968;28;45600;-78
2024/01/13 11:18:46;;;;;;;;;42.75;35.50;;;;;10.32;42.77;102254.63;5036983;28;45582;-77
2024/01/13 11:21:12;;;;;;;;;33.00;28.25;;;;;10.35;42.73;102250.13;5038274;28;45293;-81
2024/01/13 11:23:38;;;;;;;;;31.50;29.25;;;;;10.45;42.48;102257.06;5020549;28;46819;-78
2024/01/13 11:26:04;;;;;;;;;30.75;27.25;;;;;10.57;42.54;102243.38;5038564;28;45367;-77
2024/01/13 11:28:49;;;;;;;;;35.75;28.00;;;;;10.58;41.90;102221.00;5019890;28;45876;-78
2024/01/13 11:31:37;;;;;;;;;34.25;31.25;;;;;10.55;42.08;102229.09;5038766;28;45447;-76
2024/01/13 11:34:05;;;;;;;;;37.00;27.75;;;;;10.57;42.34;102239.78;5037581;28;45387;-79
2024/01/13 11:36:35;;;;;;;;;35.00;30.75;;;;;10.69;41.84;102222.56;5032625;28;45284;-75
2024/01/13 11:39:02;;;;;;;;;28.00;28.00;;;;;10.77;41.80;102221.47;5032752;28;45360;-77
2024/01/13 11:41:37;;;;;;;;;29.00;25.75;;;;;10.77;41.50;102228.63;5037231;28;45386;-71
2024/01/13 11:44:06;;;;;;;;;28.25;26.75;;;;;10.71;41.56;102216.25;5037105;28;45670;-79
2024/01/13 11:46:39;;;;;;;;;42.00;37.00;;;;;10.71;41.45;102193.91;5027274;28;45505;-77
2024/01/13 11:49:05;;;;;;;;;40.50;32.25;;;;;10.93;41.32;102219.31;5045190;28;45360;-77
2024/01/13 11:51:57;;;;;;;;;31.50;28.25;;;;;10.95;41.32;102206.75;5018671;28;45497;-79
2024/01/13 11:54:24;;;;;;;;;40.50;36.75;;;;;10.95;41.42;102201.38;5032477;28;45550;-76
2024/01/13 11:56:49;;;;;;;;;39.50;34.50;;;;;10.84;41.12;102198.94;5036664;28;45571;-77
2024/01/13 11:59:16;;;;;;;;;29.50;25.75;;;;;10.67;41.36;102205.59;5036079;28;45231;-76
2024/01/13 12:01:42;;;;;;;;;40.75;37.25;;;;;10.43;41.50;102188.28;5018401;28;45481;-76
2024/01/13 12:04:08;;;;;;;;;49.50;32.00;;;;;10.21;41.91;102194.09;5036802;28;45363;-73
2024/01/13 12:06:34;;;;;;;;;37.00;33.25;;;;;9.97;42.57;102178.50;5036266;28;46228;-73
2024/01/13 12:09:00;;;;;;;;;31.75;29.75;;;;;10.01;42.62;102173.97;5036482;28;45264;-76
2024/01/13 12:11:26;;;;;;;;;38.25;30.00;;;;;10.07;42.64;102174.72;5030398;28;45488;-74
2024/01/13 12:13:51;;;;;;;;;39.50;31.50;;;;;10.06;42.42;102172.06;5036342;28;45437;-76
2024/01/13 12:16:16;;;;;;;;;43.25;37.75;;;;;10.04;42.45;102165.84;5036268;28;47800;-76
2024/01/13 12:18:45;;;;;;;;;39.25;36.50;;;;;9.99;42.69;102165.97;5036527;28;45421;-74
2024/01/13 12:21:13;;;;;;;;;23.75;16.50;;;;;10.26;42.93;102185.97;5036336;28;45386;-75
2024/01/13 12:23:39;;;;;;;;;37.00;31.00;;;;;10.26;42.34;102169.88;5036088;28;45589;-74
2024/01/13 12:26:05;;;;;;;;;38.33;34.00;;;;;10.12;42.17;102161.25;5035673;28;45426;-73
2024/01/13 12:28:31;;;;;;;;;46.75;36.75;;;;;10.04;42.57;102157.81;5036296;28;45457;-74
2024/01/13 12:30:57;;;;;;;;;40.50;30.25;;;;;9.97;42.33;102153.50;5036263;28;45371;-76
2024/01/13 12:33:25;;;;;;;;;54.75;39.25;;;;;9.68;42.89;102165.72;5045649;28;49095;-73
2024/01/13 12:35:58;;;;;;;;;41.25;33.00;;;;;9.55;43.19;102155.25;5056066;28;45393;-73
2024/01/13 12:38:26;;;;;;;;;37.25;32.50;;;;;9.62;43.40;102143.50;5056132;28;45398;-74
2024/01/13 12:40:52;;;;;;;;;42.75;30.75;;;;;9.66;43.68;102151.47;5052759;28;45209;-76
2024/01/13 12:43:18;;;;;;;;;42.75;35.75;;;;;9.73;43.26;102134.34;5056352;28;45294;-76
2024/01/13 12:45:44;;;;;;;;;43.75;32.00;;;;;9.59;42.84;102101.63;5056628;28;45361;-74
2024/01/13 12:48:09;;;;;;;;;42.50;32.00;;;;;9.80;43.22;102125.28;5056700;28;45326;-75
2024/01/13 12:50:34;;;;;;;;;41.25;28.75;;;;;9.71;43.00;102105.84;5048279;28;48840;-77
2024/01/13 12:53:00;;;;;;;;;34.25;27.75;;;;;9.77;42.96;102105.72;5055960;28;45686;-74
2024/01/13 12:55:25;;;;;;;;;38.25;37.00;;;;;9.98;43.29;102117.78;5055840;28;51165;-75
2024/01/13 12:57:50;;;;;;;;;38.33;37.67;;;;;10.00;42.82;102103.44;5040524;28;54531;-75
2024/01/13 13:00:17;;;;;;;;;48.25;32.00;;;;;9.98;42.71;102117.78;5024634;28;45372;-74
2024/01/13 13:02:44;;;;;;;;;29.25;26.00;;;;;9.92;42.74;102101.84;5035378;28;45335;-75
2024/01/13 13:05:10;;;;;;;;;34.00;30.00;;;;;10.01;42.63;102093.59;5035246;28;45987;-74
2024/01/13 13:07:35;;;;;;;;;36.00;34.50;;;;;10.09;42.89;102088.94;5041169;28;45529;-71
2024/01/13 13:10:01;;;;;;;;;37.25;30.25;;;;;10.12;43.11;102094.25;5041005;28;45517;-74
2024/01/13 13:12:27;;;;;;;;;30.50;27.50;;;;;10.21;42.40;102092.25;5043511;28;46198;-75
2024/01/13 13:14:52;;;;;;;;;42.00;34.50;;;;;10.26;42.42;102089.47;5039956;28;45512;-76
2024/01/13 13:17:18;;;;;;;;;34.50;31.50;;;;;10.30;42.27;102090.28;5036277;28;45445;-75
2024/01/13 13:19:44;;;;;;;;;32.00;28.00;;;;;10.17;42.58;102074.50;5041755;28;45353;-74
2024/01/13 13:22:10;;;;;;;;;35.25;29.50;;;;;10.00;42.95;102083.78;5043051;28;45482;-73
2024/01/13 13:24:35;;;;;;;;;36.25;34.25;;;;;9.67;43.32;102048.81;5032493;28;45507;-76
2024/01/13 13:27:02;;;;;;;;;24.25;24.25;;;;;9.78;43.02;102059.28;5039692;28;45391;-74
2024/01/13 13:29:27;;;;;;;;;35.75;31.50;;;;;9.69;43.43;102055.00;5031875;28;45474;-75
2024/01/13 13:31:54;;;;;;;;;32.00;27.75;;;;;9.84;43.19;102043.97;5038562;28;45372;-75
2024/01/13 13:34:20;;;;;;;;;40.00;33.00;;;;;9.97;43.23;102046.34;5034329;28;45451;-75
2024/01/13 13:36:45;;;;;;;;;34.25;33.75;;;;;10.06;42.99;102038.09;5033694;28;45361;-78
2024/01/13 13:39:11;;;;;;;;;35.50;26.50;;;;;10.12;42.35;102056.75;5034036;28;45352;-74
2024/01/13 13:41:36;;;;;;;;;33.00;28.75;;;;;10.09;42.10;102041.59;5027755;28;45456;-75
2024/01/13 13:44:02;;;;;;;;;34.00;28.00;;;;;10.21;42.38;102048.50;5034732;28;47838;-75
2024/01/13 13:46:27;;;;;;;;;25.75;25.00;;;;;10.29;42.20;102056.38;5034654;28;45631;-74
2024/01/13 13:48:53;;;;;;;;;37.00;31.25;;;;;10.37;41.92;102057.06;5030033;28;45364;-76
2024/01/13 13:51:19;;;;;;;;;30.25;27.25;;;;;10.42;41.55;102058.72;5025489;28;55009;-75
2024/01/13 13:53:44;;;;;;;;;36.25;24.00;;;;;10.45;41.69;102047.94;5032003;28;45458;-77
2024/01/13 13:56:09;;;;;;;;;41.75;26.75;;;;;10.47;41.25;102055.91;5024764;28;45360;-74
2024/01/13 13:58:35;;;;;;;;;23.75;23.75;;;;;10.32;41.25;102038.41;5030844;28;45384;-75
2024/01/13 14:01:00;;;;;;;;;34.75;26.75;;;;;10.22;41.20;102040.41;5039907;28;45315;-75
2024/01/13 14:03:26;;;;;;;;;31.75;31.75;;;;;9.92;42.51;102037.53;5020614;28;47332;-76
2024/01/13 14:05:51;;;;;;;;;34.00;29.25;;;;;10.00;41.90;102041.81;5034442;28;45522;-72
2024/01/13 14:08:16;;;;;;;;;14.67;4.33;;;;;10.04;42.28;102024.72;5034749;28;45353;-72
2024/01/13 14:10:44;;;;;;;;;44.25;33.75;;;;;10.09;42.12;102027.31;5032230;28;54523;-73
2024/01/13 14:13:09;;;;;;;;;32.50;32.00;;;;;10.14;42.53;102026.28;5031181;28;46238;-74
2024/01/13 14:15:34;;;;;;;;;40.25;34.00;;;;;10.05;42.02;101998.81;5034581;28;45382;-73
2024/01/13 14:18:00;;;;;;;;;35.00;34.00;;;;;10.01;42.42;102024.81;5047682;28;45367;-74
2024/01/13 14:20:26;;;;;;;;;40.00;34.00;;;;;9.90;42.66;102024.19;5034608;28;45288;-77
2024/01/13 14:22:52;;;;;;;;;40.25;35.50;;;;;9.91;42.52;102009.88;5029130;28;45367;-75
2024/01/13 14:25:18;;;;;;;;;32.25;32.25;;;;;9.84;42.94;101992.19;5036929;28;45407;-74
2024/01/13 14:27:44;;;;;;;;;48.33;36.00;;;;;9.91;42.82;101984.88;5030795;28;45185;-74
2024/01/13 14:30:10;;;;;;;;;33.33;30.67;;;;;10.09;42.50;101989.81;5034362;28;45299;-74
2024/01/13 14:32:35;;;;;;;;;42.33;40.00;;;;;10.24;42.56;101994.81;5033858;28;46136;-75
2024/01/13 14:35:02;;;;;;;;;41.00;28.00;;;;;10.25;42.02;101999.28;5038246;28;45399;-74
2024/01/13 14:37:27;;;;;;;;;35.00;30.75;;;;;10.28;41.99;101993.84;5034250;28;45383;-75
2024/01/13 14:39:53;;;;;;;;;38.00;35.00;;;;;10.43;42.26;101997.94;5034027;28;45378;-74
2024/01/13 14:42:19;;;;;;;;;42.33;36.00;;;;;10.53;41.88;101992.31;5025776;28;45527;-74
2024/01/13 14:44:46;;;;;;;;;38.00;36.33;;;;;10.53;41.22;101983.38;5033392;28;45487;-73
2024/01/13 14:47:11;;;;;;;;;28.75;27.00;;;;;10.48;41.82;101987.97;5015229;28;45592;-74
2024/01/13 14:49:37;;;;;;;;;40.75;33.75;;;;;10.50;41.81;101991.50;5032766;28;45458;-78
2024/01/13 14:52:02;;;;;;;;;30.25;24.75;;;;;10.54;41.22;101991.38;5033050;28;56753;-76
2024/01/13 14:54:28;;;;;;;;;35.75;33.50;;;;;10.58;41.58;101982.31;5033814;28;45385;-75
2024/01/13 14:56:53;;;;;;;;;46.00;40.00;;;;;10.60;41.49;101980.50;5034065;28;45325;-75
2024/01/13 14:59:18;;;;;;;;;48.00;40.33;;;;;10.54;41.58;101977.09;5035813;28;48367;-75
2024/01/13 15:01:46;;;;;;;;;47.75;35.00;;;;;10.37;41.86;101953.41;5033610;28;46054;-74
2024/01/13 15:04:14;;;;;;;;;41.25;33.00;;;;;10.48;41.24;101983.47;5034045;28;45495;-75
2024/01/13 15:06:40;;;;;;;;;40.67;34.33;;;;;10.46;41.98;101996.03;5034142;28;45356;-74
2024/01/13 15:09:05;;;;;;;;;49.33;40.00;;;;;10.35;41.88;102000.81;5033722;28;45459;-75
2024/01/13 15:11:31;;;;;;;;;33.75;33.75;;;;;10.31;42.12;101993.75;5028129;28;46361;-75
2024/01/13 15:13:57;;;;;;;;;54.00;40.67;;;;;10.44;41.88;101997.03;5015883;28;47061;-74
2024/01/13 15:16:22;;;;;;;;;44.00;38.67;;;;;10.26;41.87;101950.13;5033752;28;45345;-74
2024/01/13 15:18:47;;;;;;;;;47.33;40.00;;;;;10.46;42.03;101992.50;5033924;28;45297;-73
2024/01/13 15:21:13;;;;;;;;;48.00;40.33;;;;;10.53;41.77;101996.78;5033400;28;45340;-73
2024/01/13 15:23:38;;;;;;;;;51.67;39.67;;;;;10.44;41.59;101988.97;5033560;28;45218;-73
2024/01/13 15:26:04;;;;;;;;;33.50;29.25;;;;;10.45;42.06;101991.63;5033424;28;45538;-74
2024/01/13 15:28:29;;;;;;;;;43.00;37.33;;;;;10.19;42.27;101978.00;5033731;28;45606;-71
2024/01/13 15:30:54;;;;;;;;;46.00;40.33;;;;;10.28;41.80;101996.53;5033227;28;52085;-72
2024/01/13 15:33:20;;;;;;;;;48.33;42.67;;;;;10.22;41.93;101999.34;5033223;28;45366;-71
2024/01/13 15:35:45;;;;;;;;;42.00;36.00;;;;;10.03;42.28;101998.88;5028711;28;51649;-73
2024/01/13 15:38:13;;;;;;;;;43.67;38.33;;;;;9.80;42.17;102004.75;5032959;28;45493;-72
2024/01/13 15:40:39;;;;;;;;;40.00;34.00;;;;;9.58;42.91;102013.31;5029865;28;45349;-70
2024/01/13 15:43:05;;;;;;;;;38.00;35.67;;;;;9.25;43.25;101961.38;5032874;28;45347;-72
2024/01/13 15:45:30;;;;;;;;;34.00;29.33;;;;;9.53;43.05;102008.03;5030794;28;46520;-73
2024/01/13 15:47:55;;;;;;;;;51.00;41.00;;;;;9.69;42.88;102001.47;5015449;28;45882;-73
2024/01/13 15:50:22;;;;;;;;;44.00;40.33;;;;;9.71;42.91;101988.00;5036752;28;45955;-72
2024/01/13 15:52:47;;;;;;;;;43.33;34.67;;;;;9.77;42.24;101988.78;5036014;28;45647;-70
2024/01/13 15:55:12;;;;;;;;;45.67;37.33;;;;;9.86;42.43;101990.38;5022531;28;45875;-72
2024/01/13 15:57:38;;;;;;;;;41.00;36.00;;;;;9.86;42.40;101991.25;5033788;28;45639;-73
2024/01/13 16:00:05;;;;;;;;;42.33;34.67;;;;;9.98;42.03;101989.19;5037497;28;46608;-70
2024/01/13 16:02:31;;;;;;;;;33.67;33.67;;;;;9.78;42.58;101992.34;5036199;28;45320;-71
2024/01/13 16:04:57;;;;;;;;;41.67;33.33;;;;;9.73;42.80;102002.25;5035064;28;54033;-73
2024/01/13 16:07:23;;;;;;;;;40.67;35.33;;;;;9.73;42.39;101988.88;5036149;28;46004;-71
2024/01/13 16:09:48;;;;;;;;;39.33;36.33;;;;;9.77;42.18;101996.81;5035917;28;47669;-71